createdAt,value
2023-05-14T00:00:31.459Z,11.35
2023-05-14T00:02:58.566Z,11.25
2023-05-14T00:05:25.962Z,9.48
2023-05-14T00:07:53.489Z,10.43
2023-05-14T00:10:21.972Z,10.77
2023-05-14T00:12:49.831Z,10.73
2023-05-14T00:15:16.974Z,11.60
2023-05-14T00:17:44.168Z,10.38
2023-05-14T00:20:12.368Z,9.77
2023-05-14T00:22:39.859Z,11.38
2023-05-14T00:25:07.481Z,10.85
2023-05-14T00:27:35.456Z,9.95
2023-05-14T00:30:03.155Z,9.75
2023-05-14T00:32:30.394Z,11.00
2023-05-14T00:34:58.640Z,10.57
2023-05-14T00:37:25.796Z,10.15
2023-05-14T00:39:52.960Z,10.38
2023-05-14T00:42:20.312Z,10.30
2023-05-14T00:44:47.497Z,10.68
2023-05-14T00:47:15.458Z,10.65
2023-05-14T00:49:43.291Z,10.77
2023-05-14T00:52:11.495Z,10.63
2023-05-14T00:54:38.892Z,10.45
2023-05-14T00:57:06.952Z,10.52
2023-05-14T00:59:34.610Z,9.88
2023-05-14T01:02:01.947Z,11.57
2023-05-14T01:04:29.600Z,10.50
2023-05-14T01:07:09.169Z,10.95
2023-05-14T01:09:39.554Z,10.05
2023-05-14T01:12:12.801Z,11.88
2023-05-14T01:14:46.209Z,10.90
2023-05-14T01:17:14.958Z,11.00
2023-05-14T01:19:43.744Z,12.50
2023-05-14T01:22:13.019Z,11.77
2023-05-14T01:24:40.578Z,11.27
2023-05-14T01:27:10.847Z,11.18
2023-05-14T01:32:07.185Z,10.82
2023-05-14T01:34:36.289Z,11.98
2023-05-14T01:37:04.935Z,11.20
2023-05-14T01:39:32.500Z,11.60
2023-05-14T01:42:00.518Z,11.70
2023-05-14T01:44:30.834Z,11.52
2023-05-14T01:46:58.826Z,11.88
2023-05-14T01:49:26.085Z,11.68
2023-05-14T01:51:56.090Z,11.70
2023-05-14T01:54:23.246Z,11.43
2023-05-14T01:56:50.838Z,10.85
2023-05-14T01:59:20.618Z,10.73
2023-05-14T02:01:47.843Z,11.30
2023-05-14T02:04:15.578Z,12.00
2023-05-14T02:06:42.941Z,11.80
2023-05-14T02:09:10.475Z,11.73
2023-05-14T02:11:37.689Z,11.18
2023-05-14T02:14:04.964Z,11.63
2023-05-14T02:16:32.406Z,11.10
2023-05-14T02:18:59.875Z,11.13
2023-05-14T02:21:27.149Z,11.73
2023-05-14T02:23:54.501Z,11.23
2023-05-14T02:26:21.607Z,11.75
2023-05-14T02:28:48.822Z,11.80
2023-05-14T02:31:17.601Z,11.30
2023-05-14T02:33:44.923Z,11.73
2023-05-14T02:36:12.181Z,11.95
2023-05-14T02:38:39.504Z,11.70
2023-05-14T02:41:06.881Z,11.15
2023-05-14T02:43:34.072Z,12.18
2023-05-14T02:46:01.368Z,11.00
2023-05-14T02:48:28.834Z,12.13
2023-05-14T02:50:56.112Z,10.85
2023-05-14T02:53:23.293Z,11.60
2023-05-14T02:55:50.577Z,11.00
2023-05-14T02:58:17.840Z,10.43
2023-05-14T03:00:48.492Z,11.43
2023-05-14T03:03:15.707Z,10.95
2023-05-14T03:05:43.456Z,11.15
2023-05-14T03:08:10.754Z,11.10
2023-05-14T03:10:37.963Z,10.00
2023-05-14T03:13:05.437Z,11.02
2023-05-14T03:15:32.652Z,10.95
2023-05-14T03:17:59.869Z,11.02
2023-05-14T03:20:27.219Z,11.80
2023-05-14T03:22:54.711Z,10.35
2023-05-14T03:25:21.901Z,11.68
2023-05-14T03:27:49.038Z,11.90
2023-05-14T03:30:17.375Z,13.63
2023-05-14T03:32:44.939Z,11.00
2023-05-14T03:35:13.849Z,11.70
2023-05-14T03:37:41.096Z,11.55
2023-05-14T03:40:08.666Z,11.00
2023-05-14T03:42:36.913Z,11.05
2023-05-14T03:45:04.257Z,11.27
2023-05-14T03:47:31.449Z,11.40
2023-05-14T03:50:01.382Z,11.52
2023-05-14T03:52:30.710Z,12.00
2023-05-14T03:54:57.923Z,10.77
2023-05-14T03:57:28.207Z,10.80
2023-05-14T03:59:59.802Z,11.23
2023-05-14T04:04:56.009Z,10.88
2023-05-14T04:07:23.415Z,11.10
2023-05-14T04:09:50.719Z,11.73
2023-05-14T04:12:18.759Z,11.50
2023-05-14T04:14:45.967Z,10.40
2023-05-14T04:17:13.176Z,11.18
2023-05-14T04:19:40.462Z,11.48
2023-05-14T04:22:07.201Z,10.82
2023-05-14T04:24:34.365Z,11.88
2023-05-14T04:27:03.779Z,10.48
2023-05-14T04:29:31.066Z,10.82
2023-05-14T04:31:58.350Z,10.85
2023-05-14T04:34:26.171Z,11.35
2023-05-14T04:36:53.313Z,10.52
2023-05-14T04:39:20.497Z,10.30
2023-05-14T04:41:47.671Z,9.70
2023-05-14T04:44:14.869Z,10.73
2023-05-14T04:46:42.380Z,10.20
2023-05-14T04:49:09.696Z,9.70
2023-05-14T04:51:36.837Z,9.95
2023-05-14T04:54:04.069Z,9.02
2023-05-14T04:56:31.396Z,9.27
2023-05-14T04:58:58.083Z,9.90
2023-05-14T05:01:25.366Z,8.75
2023-05-14T05:03:52.715Z,9.10
2023-05-14T05:06:20.017Z,8.77
2023-05-14T05:08:47.113Z,9.55
2023-05-14T05:11:14.295Z,9.27
2023-05-14T05:13:41.880Z,10.20
2023-05-14T05:16:09.174Z,9.88
2023-05-14T05:18:36.388Z,10.65
2023-05-14T05:21:03.821Z,9.73
2023-05-14T05:23:31.260Z,8.88
2023-05-14T05:25:58.433Z,10.27
2023-05-14T05:28:25.581Z,9.73
2023-05-14T05:30:52.920Z,9.10
2023-05-14T05:33:20.219Z,9.75
2023-05-14T05:35:48.317Z,9.60
2023-05-14T05:38:15.716Z,9.85
2023-05-14T05:40:45.277Z,8.68
2023-05-14T05:43:13.943Z,9.73
2023-05-14T05:45:41.603Z,8.93
2023-05-14T05:48:12.148Z,8.68
2023-05-14T05:50:39.098Z,9.15
2023-05-14T05:53:06.208Z,9.05
2023-05-14T05:55:33.410Z,8.35
2023-05-14T05:58:00.188Z,8.73
2023-05-14T06:00:27.562Z,8.93
2023-05-14T06:02:56.160Z,8.82
2023-05-14T06:05:23.737Z,8.55
2023-05-14T06:07:50.942Z,9.88
2023-05-14T06:10:18.072Z,8.27
2023-05-14T06:12:44.859Z,7.88
2023-05-14T06:15:12.256Z,8.30
2023-05-14T06:17:39.724Z,7.55
2023-05-14T06:20:07.954Z,7.22
2023-05-14T06:22:35.429Z,7.10
2023-05-14T06:25:04.940Z,7.45
2023-05-14T06:27:32.114Z,8.02
2023-05-14T06:29:59.362Z,8.48
2023-05-14T06:32:26.197Z,8.48
2023-05-14T06:34:53.438Z,8.57
2023-05-14T06:37:20.764Z,8.45
2023-05-14T06:39:50.379Z,9.30
2023-05-14T06:42:17.843Z,8.70
2023-05-14T06:44:45.569Z,9.77
2023-05-14T06:47:12.982Z,9.07
2023-05-14T06:49:40.387Z,9.60
2023-05-14T06:52:07.548Z,9.73
2023-05-14T06:54:34.684Z,9.57
2023-05-14T06:57:01.863Z,9.27
2023-05-14T06:59:29.073Z,9.25
2023-05-14T07:01:55.924Z,9.60
2023-05-14T07:04:23.214Z,9.95
2023-05-14T07:06:50.500Z,10.25
2023-05-14T07:09:17.683Z,9.98
2023-05-14T07:11:45.786Z,9.30
2023-05-14T07:14:13.026Z,10.50
2023-05-14T07:16:41.635Z,9.07
2023-05-14T07:19:08.947Z,8.95
2023-05-14T07:21:37.326Z,8.93
2023-05-14T07:24:04.634Z,8.93
2023-05-14T07:26:31.865Z,8.98
2023-05-14T07:28:59.020Z,8.55
2023-05-14T07:31:28.954Z,8.25
2023-05-14T07:33:56.473Z,7.72
2023-05-14T07:36:26.268Z,8.48
2023-05-14T07:38:53.025Z,7.68
2023-05-14T07:41:20.760Z,7.82
2023-05-14T07:43:47.876Z,7.00
2023-05-14T07:46:15.283Z,6.95
2023-05-14T07:48:42.448Z,7.00
2023-05-14T07:51:09.697Z,7.18
2023-05-14T07:53:36.575Z,6.75
2023-05-14T07:56:03.436Z,7.63
2023-05-14T07:58:30.884Z,6.97
2023-05-14T08:00:58.009Z,6.60
2023-05-14T08:03:24.972Z,6.95
2023-05-14T08:05:52.588Z,7.18
2023-05-14T08:08:21.678Z,6.07
2023-05-14T08:10:48.945Z,6.45
2023-05-14T08:13:16.632Z,5.85
2023-05-14T08:15:43.525Z,5.75
2023-05-14T08:18:10.837Z,5.30
2023-05-14T08:20:37.717Z,5.22
2023-05-14T08:23:07.109Z,5.53
2023-05-14T08:28:01.842Z,4.60
2023-05-14T08:30:29.104Z,4.97
2023-05-14T08:32:56.479Z,4.50
2023-05-14T08:35:23.274Z,5.70
2023-05-14T08:37:50.442Z,4.65
2023-05-14T08:40:17.821Z,4.65
2023-05-14T08:42:47.940Z,4.72
2023-05-14T08:45:25.751Z,4.53
2023-05-14T08:47:53.541Z,4.93
2023-05-14T08:50:23.057Z,4.00
2023-05-14T08:52:51.137Z,4.07
2023-05-14T08:55:20.937Z,4.70
2023-05-14T08:57:48.648Z,4.60
2023-05-14T09:00:15.943Z,4.80
2023-05-14T09:02:44.768Z,4.53
2023-05-14T09:05:12.486Z,5.05
2023-05-14T09:07:39.941Z,4.82
2023-05-14T09:10:09.027Z,4.80
2023-05-14T09:12:38.413Z,4.45
2023-05-14T09:15:06.565Z,4.13
2023-05-14T09:17:34.812Z,4.68
2023-05-14T09:20:01.732Z,4.35
2023-05-14T09:22:34.324Z,4.70
2023-05-14T09:25:06.172Z,4.40
2023-05-14T09:27:33.923Z,4.00
2023-05-14T09:30:11.951Z,4.20
2023-05-14T09:32:40.773Z,3.97
2023-05-14T09:35:22.031Z,4.43
2023-05-14T09:37:52.000Z,4.50
2023-05-14T09:40:20.859Z,4.40
2023-05-14T09:42:49.283Z,4.68
2023-05-14T09:45:16.760Z,4.50
2023-05-14T09:47:44.999Z,4.35
2023-05-14T09:50:12.648Z,4.50
2023-05-14T09:52:39.946Z,4.13
2023-05-14T09:55:07.914Z,4.20
2023-05-14T09:57:35.384Z,3.90
2023-05-14T10:00:02.665Z,4.50
2023-05-14T10:02:38.177Z,4.95
2023-05-14T10:05:06.808Z,4.38
2023-05-14T10:07:42.321Z,4.53
2023-05-14T10:10:16.916Z,4.38
2023-05-14T10:12:46.402Z,4.18
2023-05-14T10:15:17.835Z,4.70
2023-05-14T10:17:55.614Z,4.10
2023-05-14T10:20:25.009Z,4.18
2023-05-14T10:22:52.867Z,4.60
2023-05-14T10:25:20.294Z,4.00
2023-05-14T10:27:47.444Z,4.15
2023-05-14T10:30:14.303Z,4.22
2023-05-14T10:32:42.141Z,4.60
2023-05-14T10:35:26.272Z,4.40
2023-05-14T10:37:53.485Z,4.13
2023-05-14T10:40:23.669Z,3.75
2023-05-14T10:42:51.069Z,4.00
2023-05-14T10:45:18.358Z,4.25
2023-05-14T10:47:48.950Z,4.70
2023-05-14T10:50:17.443Z,4.30
2023-05-14T10:52:48.180Z,4.47
2023-05-14T10:55:19.828Z,3.92
2023-05-14T10:57:47.140Z,4.20
2023-05-14T11:00:17.379Z,4.03
2023-05-14T11:02:47.403Z,3.80
2023-05-14T11:05:17.709Z,4.35
2023-05-14T11:07:47.115Z,4.20
2023-05-14T11:10:21.439Z,3.92
2023-05-14T11:12:50.904Z,4.20
2023-05-14T11:15:20.512Z,3.85
2023-05-14T11:17:48.354Z,4.22
2023-05-14T11:20:16.763Z,3.97
2023-05-14T11:22:44.910Z,4.32
2023-05-14T11:25:15.968Z,3.80
2023-05-14T11:27:47.892Z,4.15
2023-05-14T11:30:19.815Z,4.45
2023-05-14T11:32:50.522Z,3.90
2023-05-14T11:35:47.338Z,4.30
2023-05-14T11:38:18.670Z,4.85
2023-05-14T11:40:56.327Z,4.32
2023-05-14T11:43:28.412Z,4.60
2023-05-14T11:45:55.806Z,4.40
2023-05-14T11:48:26.439Z,5.00
2023-05-14T11:50:53.829Z,5.10
2023-05-14T11:53:25.514Z,4.57
2023-05-14T11:55:54.542Z,4.15
2023-05-14T11:58:24.191Z,4.60
2023-05-14T12:00:52.683Z,4.97
2023-05-14T12:03:26.280Z,4.95
2023-05-14T12:05:59.843Z,4.70
2023-05-14T12:08:29.089Z,4.85
2023-05-14T12:10:57.787Z,4.68
2023-05-14T12:13:29.079Z,4.47
2023-05-14T12:15:57.621Z,5.07
2023-05-14T12:18:40.452Z,4.68
2023-05-14T12:21:08.521Z,4.65
2023-05-14T12:23:59.350Z,4.53
2023-05-14T12:26:27.551Z,5.80
2023-05-14T12:29:02.031Z,4.85
2023-05-14T12:31:30.311Z,4.68
2023-05-14T12:33:57.843Z,4.55
2023-05-14T12:36:25.802Z,4.25
2023-05-14T12:39:03.763Z,4.75
2023-05-14T12:41:31.267Z,4.97
2023-05-14T12:43:58.905Z,4.72
2023-05-14T12:46:28.412Z,4.55
2023-05-14T12:48:55.805Z,4.60
2023-05-14T12:51:22.848Z,4.75
2023-05-14T12:53:54.216Z,4.53
2023-05-14T12:56:21.532Z,4.25
2023-05-14T12:58:48.357Z,4.82
2023-05-14T13:01:15.120Z,4.22
2023-05-14T13:03:41.994Z,4.53
2023-05-14T13:06:09.074Z,4.18
2023-05-14T13:08:35.942Z,3.95
2023-05-14T13:11:02.666Z,4.80
2023-05-14T13:13:29.559Z,4.35
2023-05-14T13:15:56.356Z,4.20
2023-05-14T13:18:23.141Z,4.47
2023-05-14T13:20:49.969Z,4.32
2023-05-14T13:23:16.771Z,4.43
2023-05-14T13:25:43.745Z,4.53
2023-05-14T13:28:10.756Z,4.63
2023-05-14T13:30:38.451Z,4.80
2023-05-14T13:33:05.835Z,5.03
2023-05-14T13:35:34.625Z,5.00
2023-05-14T13:38:01.907Z,4.60
2023-05-14T13:40:28.586Z,5.10
2023-05-14T13:42:55.393Z,4.85
2023-05-14T13:45:22.347Z,5.10
2023-05-14T13:47:51.508Z,4.68
2023-05-14T13:52:48.372Z,4.70
2023-05-14T13:55:18.552Z,4.90
2023-05-14T13:57:45.820Z,4.70
2023-05-14T14:00:13.516Z,4.75
2023-05-14T14:02:40.331Z,4.78
2023-05-14T14:05:10.243Z,4.70
2023-05-14T14:07:37.019Z,5.20
2023-05-14T14:10:04.822Z,4.80
2023-05-14T14:12:32.362Z,4.55
2023-05-14T14:14:59.847Z,5.30
2023-05-14T14:17:27.312Z,4.75
2023-05-14T14:19:56.711Z,4.90
2023-05-14T14:22:26.159Z,4.53
2023-05-14T14:24:55.321Z,4.13
2023-05-14T14:27:22.430Z,4.20
2023-05-14T14:29:49.596Z,4.38
2023-05-14T14:32:16.778Z,4.85
2023-05-14T14:34:43.959Z,4.35
2023-05-14T14:37:11.203Z,4.25
2023-05-14T14:39:38.310Z,5.07
2023-05-14T14:42:05.757Z,4.53
2023-05-14T14:44:32.963Z,4.38
2023-05-14T14:46:59.835Z,4.38
2023-05-14T14:49:27.941Z,4.45
2023-05-14T14:51:54.989Z,3.90
2023-05-14T14:54:21.764Z,4.32
2023-05-14T14:56:52.650Z,5.13
2023-05-14T14:59:19.457Z,4.55
2023-05-14T15:01:47.791Z,4.25
2023-05-14T15:04:15.186Z,3.88
2023-05-14T15:06:42.417Z,4.75
2023-05-14T15:09:09.797Z,4.90
2023-05-14T15:11:38.268Z,4.75
2023-05-14T15:14:06.239Z,4.40
2023-05-14T15:16:35.633Z,4.70
2023-05-14T15:21:29.838Z,4.38
2023-05-14T15:23:57.144Z,4.40
2023-05-14T15:26:24.447Z,4.50
2023-05-14T15:28:52.757Z,5.20
2023-05-14T15:31:20.004Z,4.53
2023-05-14T15:33:46.913Z,4.60
2023-05-14T15:36:16.749Z,4.50
2023-05-14T15:38:44.091Z,4.57
2023-05-14T15:41:10.857Z,5.22
2023-05-14T15:43:37.657Z,5.20
2023-05-14T15:46:04.904Z,4.55
2023-05-14T15:48:32.161Z,4.88
2023-05-14T15:50:59.298Z,4.72
2023-05-14T15:53:26.127Z,4.97
2023-05-14T15:55:53.306Z,4.80
2023-05-14T15:58:20.607Z,5.97
2023-05-14T16:00:47.766Z,4.88
2023-05-14T16:03:17.669Z,4.80
2023-05-14T16:05:45.048Z,4.63
2023-05-14T16:08:12.283Z,4.75
2023-05-14T16:10:39.036Z,4.70
2023-05-14T16:13:05.841Z,5.10
2023-05-14T16:15:33.015Z,4.80
2023-05-14T16:18:00.334Z,4.88
2023-05-14T16:20:27.109Z,4.40
2023-05-14T16:22:54.254Z,4.47
2023-05-14T16:25:21.512Z,4.63
2023-05-14T16:27:49.041Z,4.55
2023-05-14T16:30:16.251Z,4.38
2023-05-14T16:32:43.478Z,4.45
2023-05-14T16:35:10.789Z,5.18
2023-05-14T16:37:37.548Z,5.25
2023-05-14T16:40:04.998Z,4.93
2023-05-14T16:42:32.100Z,5.30
2023-05-14T16:44:58.846Z,5.30
2023-05-14T16:47:26.032Z,5.45
2023-05-14T16:49:55.779Z,5.68
2023-05-14T16:52:22.507Z,6.40
2023-05-14T16:54:52.056Z,6.07
2023-05-14T16:57:19.203Z,5.57
2023-05-14T16:59:46.447Z,5.95
2023-05-14T17:02:13.639Z,6.15
2023-05-14T17:04:42.287Z,5.75
2023-05-14T17:07:09.824Z,6.47
2023-05-14T17:09:37.078Z,6.40
2023-05-14T17:12:04.605Z,5.57
2023-05-14T17:14:32.087Z,6.70
2023-05-14T17:16:59.354Z,6.05
2023-05-14T17:19:26.604Z,5.40
2023-05-14T17:21:53.816Z,5.65
2023-05-14T17:24:21.023Z,5.93
2023-05-14T17:26:47.817Z,5.97
2023-05-14T17:29:15.035Z,5.90
2023-05-14T17:31:41.878Z,6.70
2023-05-14T17:34:09.215Z,6.22
2023-05-14T17:36:36.476Z,7.00
2023-05-14T17:39:03.659Z,6.55
2023-05-14T17:41:30.811Z,6.78
2023-05-14T17:44:03.942Z,6.40
2023-05-14T17:46:34.293Z,6.32
2023-05-14T17:49:01.811Z,7.05
2023-05-14T17:51:28.916Z,7.07
2023-05-14T17:54:01.816Z,6.63
2023-05-14T17:56:30.034Z,6.32
2023-05-14T17:58:57.801Z,7.07
2023-05-14T18:01:35.269Z,6.97
2023-05-14T18:04:22.896Z,7.00
2023-05-14T18:07:15.272Z,7.72
2023-05-14T18:09:42.638Z,6.93
2023-05-14T18:12:10.636Z,6.50
2023-05-14T18:14:40.059Z,6.43
2023-05-14T18:17:11.595Z,6.80
2023-05-14T18:19:56.598Z,5.93
2023-05-14T18:23:28.693Z,6.18
2023-05-14T18:25:56.618Z,5.80
2023-05-14T18:28:27.072Z,6.00
2023-05-14T18:31:00.024Z,6.53
2023-05-14T18:33:27.249Z,6.25
2023-05-14T18:35:54.524Z,6.93
2023-05-14T18:38:21.709Z,6.38
2023-05-14T18:40:49.424Z,6.97
2023-05-14T18:43:18.409Z,6.93
2023-05-14T18:45:48.536Z,6.90
2023-05-14T18:48:18.948Z,6.70
2023-05-14T18:50:46.126Z,7.32
2023-05-14T18:53:12.889Z,6.78
2023-05-14T18:55:40.562Z,6.68
2023-05-14T18:58:07.785Z,6.50
2023-05-14T19:00:34.933Z,7.00
2023-05-14T19:03:02.182Z,6.95
2023-05-14T19:05:29.612Z,7.57
2023-05-14T19:07:57.003Z,6.45
2023-05-14T19:10:24.176Z,6.07
2023-05-14T19:12:51.419Z,6.85
2023-05-14T19:15:20.988Z,6.68
2023-05-14T19:17:49.023Z,7.05
2023-05-14T19:20:16.229Z,6.10
2023-05-14T19:22:45.679Z,6.65
2023-05-14T19:25:12.957Z,6.53
2023-05-14T19:27:42.940Z,6.88
2023-05-14T19:32:38.022Z,6.63
2023-05-14T19:35:06.200Z,6.45
2023-05-14T19:37:33.641Z,6.43
2023-05-14T19:40:00.760Z,6.70
2023-05-14T19:42:28.029Z,7.47
2023-05-14T19:44:55.796Z,6.40
2023-05-14T19:47:23.033Z,6.35
2023-05-14T19:49:50.345Z,6.35
2023-05-14T19:52:17.486Z,5.88
2023-05-14T19:54:44.203Z,6.30
2023-05-14T19:57:11.348Z,5.60
2023-05-14T19:59:40.523Z,6.82
2023-05-14T20:02:09.281Z,6.13
2023-05-14T20:04:41.544Z,6.97
2023-05-14T20:07:08.600Z,6.45
2023-05-14T20:09:35.709Z,6.78
2023-05-14T20:12:02.428Z,6.13
2023-05-14T20:14:29.694Z,6.32
2023-05-14T20:16:57.907Z,6.25
2023-05-14T20:19:26.641Z,6.03
2023-05-14T20:21:53.446Z,6.32
2023-05-14T20:24:20.581Z,5.80
2023-05-14T20:26:47.779Z,6.38
2023-05-14T20:29:14.960Z,6.32
2023-05-14T20:31:41.799Z,6.30
2023-05-14T20:34:08.901Z,5.75
2023-05-14T20:36:36.225Z,6.43
2023-05-14T20:39:04.899Z,6.38
2023-05-14T20:41:32.386Z,6.65
2023-05-14T20:43:59.684Z,7.15
2023-05-14T20:46:26.913Z,6.05
2023-05-14T20:48:57.258Z,6.05
2023-05-14T20:51:24.419Z,5.90
2023-05-14T20:53:51.809Z,5.55
2023-05-14T20:56:18.980Z,5.97
2023-05-14T20:58:46.381Z,5.85
2023-05-14T21:01:13.487Z,5.65
2023-05-14T21:03:41.031Z,6.00
2023-05-14T21:06:08.518Z,5.95
2023-05-14T21:08:37.654Z,5.93
2023-05-14T21:11:04.826Z,6.30
2023-05-14T21:13:31.540Z,7.43
2023-05-14T21:16:00.277Z,6.80
2023-05-14T21:18:30.851Z,6.45
2023-05-14T21:20:58.098Z,6.53
2023-05-14T21:23:25.395Z,6.45
2023-05-14T21:25:54.646Z,6.70
2023-05-14T21:28:24.467Z,6.95
2023-05-14T21:30:53.966Z,6.82
2023-05-14T21:33:21.159Z,6.90
2023-05-14T21:35:48.566Z,7.20
2023-05-14T21:38:15.948Z,7.03
2023-05-14T21:40:43.400Z,6.75
2023-05-14T21:43:10.584Z,7.20
2023-05-14T21:45:37.837Z,8.05
2023-05-14T21:48:05.195Z,6.55
2023-05-14T21:50:32.034Z,7.28
2023-05-14T21:52:59.305Z,7.13
2023-05-14T21:55:27.562Z,7.25
2023-05-14T21:57:55.041Z,7.43
2023-05-14T22:00:25.194Z,7.70
2023-05-14T22:05:19.981Z,6.95
2023-05-14T22:07:49.238Z,8.18
2023-05-14T22:10:17.617Z,7.18
2023-05-14T22:12:45.346Z,7.25
2023-05-14T22:15:12.718Z,6.97
2023-05-14T22:17:41.718Z,6.82
2023-05-14T22:20:14.225Z,6.93
2023-05-14T22:22:41.377Z,6.95
2023-05-14T22:25:08.904Z,8.23
2023-05-14T22:27:35.770Z,7.28
2023-05-14T22:30:02.917Z,7.07
2023-05-14T22:32:30.072Z,7.32
2023-05-14T22:34:57.278Z,7.20
2023-05-14T22:37:24.440Z,7.43
2023-05-14T22:39:51.614Z,7.30
2023-05-14T22:42:20.212Z,7.60
2023-05-14T22:44:47.474Z,7.25
2023-05-14T22:47:14.676Z,8.60
2023-05-14T22:49:42.390Z,8.07
2023-05-14T22:52:10.097Z,7.57
2023-05-14T22:54:36.889Z,7.72
2023-05-14T22:57:06.318Z,7.50
2023-05-14T22:59:33.821Z,7.60
2023-05-14T23:02:01.050Z,8.00
2023-05-14T23:04:28.252Z,8.13
2023-05-14T23:06:55.641Z,7.60
2023-05-14T23:09:22.740Z,8.52
2023-05-14T23:11:49.934Z,7.70
2023-05-14T23:14:18.402Z,8.63
2023-05-14T23:16:45.645Z,8.38
2023-05-14T23:19:13.018Z,8.57
2023-05-14T23:21:40.349Z,7.47
2023-05-14T23:24:07.679Z,7.85
2023-05-14T23:26:34.968Z,8.13
2023-05-14T23:29:02.105Z,7.90
2023-05-14T23:31:29.378Z,7.85
2023-05-14T23:33:57.225Z,7.80
2023-05-14T23:36:24.604Z,8.15
2023-05-14T23:38:51.872Z,7.93
2023-05-14T23:41:19.071Z,8.43
2023-05-14T23:43:46.394Z,8.27
2023-05-14T23:46:13.570Z,8.65
2023-05-14T23:48:40.762Z,8.88
2023-05-14T23:51:08.147Z,8.75
2023-05-14T23:53:35.366Z,9.45
2023-05-14T23:56:02.474Z,9.13
2023-05-14T23:58:30.220Z,9.70
